マスカット の空港の天気 - METARとTAF

シーブ国際空港 ( OOMS / MCT ) - オマーン マスカット
飛行場実況気象(Metar)
観測時間05/17 20:50 GST (05/17 16:50 UTC)
風向・風速北東 3m/s
視程9000m
天気現象
なし
気温30℃
湿度84%
気圧1003hPa
METAROOMS 171650Z 04006KT 9000 NSC 30/27 Q1003 NOSIG
過去の天気等 Google飛行場航空写真 Wunderground天気予報

過去48時間のMETAR

飛行場予報(TAF)
発表時間: 5/17 15:00 GST (5/17 11:00 UTC)
予報対象時間: 17日16時 GST ~ 18日22時 GST
風向・風速北東 5m/s
視程8000m
少しの雲 雲底高度 760m
17日20時 GST ~ 17日22時 GST に徐々に
風向・風速西南西 4m/s
18日4時 GST ~ 18日7時 GST に 確率 30% で一時的に
視程4500m
天気現象もや
全天の4割程度の雲 雲底高度 300m
18日9時 GST ~ 18日11時 GST に徐々に
風向・風速北 6m/s
18日19時 GST ~ 18日21時 GST に徐々に
風向・風速南南西 3m/s
TAF OOMS 171100Z 1712/1818 05010KT 8000 FEW025
BECMG 1716/1718 24008KT
PROB30 TEMPO 1800/1803 4500 BR SCT010
BECMG 1805/1807 36012KT
BECMG 1815/1817 21005KT